sensor_id;sensor_type;location;lat;lon;timestamp;pressure;altitude;pressure_sealevel;temperature
70831;BMP180;58451;51.550;7.208;2023-03-14T00:01:16;98353.20;;;11.00
70831;BMP180;58451;51.550;7.208;2023-03-14T00:02:53;98354.80;;;11.00
70831;BMP180;58451;51.550;7.208;2023-03-14T00:04:25;98345.20;;;11.00
70831;BMP180;58451;51.550;7.208;2023-03-14T00:06:03;98341.00;;;11.00
70831;BMP180;58451;51.550;7.208;2023-03-14T00:07:38;98352.20;;;11.00
70831;BMP180;58451;51.550;7.208;2023-03-14T00:09:11;98361.20;;;10.98
70831;BMP180;58451;51.550;7.208;2023-03-14T00:10:43;98353.40;;;10.90
70831;BMP180;58451;51.550;7.208;2023-03-14T00:12:16;98345.00;;;10.90
70831;BMP180;58451;51.550;7.208;2023-03-14T00:13:52;98338.20;;;10.90
70831;BMP180;58451;51.550;7.208;2023-03-14T00:15:24;98335.60;;;10.90
70831;BMP180;58451;51.550;7.208;2023-03-14T00:16:56;98321.00;;;10.90
70831;BMP180;58451;51.550;7.208;2023-03-14T00:18:28;98317.00;;;10.90
70831;BMP180;58451;51.550;7.208;2023-03-14T00:20:00;98310.00;;;10.90
70831;BMP180;58451;51.550;7.208;2023-03-14T00:21:43;98300.80;;;10.88
70831;BMP180;58451;51.550;7.208;2023-03-14T00:23:16;98294.20;;;10.80
70831;BMP180;58451;51.550;7.208;2023-03-14T00:24:55;98285.40;;;10.80
70831;BMP180;58451;51.550;7.208;2023-03-14T00:26:27;98280.40;;;10.80
70831;BMP180;58451;51.550;7.208;2023-03-14T00:27:59;98278.80;;;10.80
70831;BMP180;58451;51.550;7.208;2023-03-14T00:29:31;98268.20;;;10.80
70831;BMP180;58451;51.550;7.208;2023-03-14T00:31:08;98264.00;;;10.72
70831;BMP180;58451;51.550;7.208;2023-03-14T00:32:40;98267.20;;;10.70
70831;BMP180;58451;51.550;7.208;2023-03-14T00:34:12;98270.40;;;10.70
70831;BMP180;58451;51.550;7.208;2023-03-14T00:36:04;98278.20;;;10.70
70831;BMP180;58451;51.550;7.208;2023-03-14T00:37:36;98287.00;;;10.64
70831;BMP180;58451;51.550;7.208;2023-03-14T00:39:09;98298.00;;;10.62
70831;BMP180;58451;51.550;7.208;2023-03-14T00:40:41;98307.60;;;10.70
70831;BMP180;58451;51.550;7.208;2023-03-14T00:42:14;98324.40;;;10.70
70831;BMP180;58451;51.550;7.208;2023-03-14T00:43:46;98321.40;;;10.70
70831;BMP180;58451;51.550;7.208;2023-03-14T00:45:19;98325.20;;;10.70
70831;BMP180;58451;51.550;7.208;2023-03-14T00:46:50;98326.80;;;10.70
70831;BMP180;58451;51.550;7.208;2023-03-14T00:48:23;98332.60;;;10.74
70831;BMP180;58451;51.550;7.208;2023-03-14T00:49:55;98332.60;;;10.76
70831;BMP180;58451;51.550;7.208;2023-03-14T00:51:26;98330.40;;;10.80
70831;BMP180;58451;51.550;7.208;2023-03-14T00:52:59;98326.00;;;10.80
70831;BMP180;58451;51.550;7.208;2023-03-14T00:54:32;98323.80;;;10.80
70831;BMP180;58451;51.550;7.208;2023-03-14T00:56:09;98336.00;;;10.80
70831;BMP180;58451;51.550;7.208;2023-03-14T00:57:42;98332.00;;;10.90
70831;BMP180;58451;51.550;7.208;2023-03-14T00:59:16;98332.00;;;10.90
70831;BMP180;58451;51.550;7.208;2023-03-14T01:00:48;98344.20;;;10.90
70831;BMP180;58451;51.550;7.208;2023-03-14T01:02:21;98352.40;;;10.90
70831;BMP180;58451;51.550;7.208;2023-03-14T01:03:55;98343.40;;;10.76
70831;BMP180;58451;51.550;7.208;2023-03-14T01:05:30;98336.20;;;10.60
70831;BMP180;58451;51.550;7.208;2023-03-14T01:07:02;98339.40;;;10.50
70831;BMP180;58451;51.550;7.208;2023-03-14T01:08:35;98342.00;;;10.38
70831;BMP180;58451;51.550;7.208;2023-03-14T01:10:09;98346.00;;;10.22
70831;BMP180;58451;51.550;7.208;2023-03-14T01:11:41;98346.80;;;10.10
70831;BMP180;58451;51.550;7.208;2023-03-14T01:13:14;98356.60;;;10.08
70831;BMP180;58451;51.550;7.208;2023-03-14T01:14:49;98354.80;;;10.00
70831;BMP180;58451;51.550;7.208;2023-03-14T01:16:24;98355.60;;;9.90
70831;BMP180;58451;51.550;7.208;2023-03-14T01:17:57;98352.00;;;9.78
70831;BMP180;58451;51.550;7.208;2023-03-14T01:19:28;98362.20;;;9.70
70831;BMP180;58451;51.550;7.208;2023-03-14T01:21:03;98366.20;;;9.60
70831;BMP180;58451;51.550;7.208;2023-03-14T01:22:37;98363.60;;;9.54
70831;BMP180;58451;51.550;7.208;2023-03-14T01:24:12;98353.40;;;9.50
70831;BMP180;58451;51.550;7.208;2023-03-14T01:25:44;98356.60;;;9.40
70831;BMP180;58451;51.550;7.208;2023-03-14T01:27:16;98354.60;;;9.40
70831;BMP180;58451;51.550;7.208;2023-03-14T01:28:51;98353.40;;;9.30
70831;BMP180;58451;51.550;7.208;2023-03-14T01:30:23;98353.60;;;9.30
70831;BMP180;58451;51.550;7.208;2023-03-14T01:31:55;98351.20;;;9.22
70831;BMP180;58451;51.550;7.208;2023-03-14T01:33:27;98355.20;;;9.20
70831;BMP180;58451;51.550;7.208;2023-03-14T01:34:59;98352.00;;;9.20
70831;BMP180;58451;51.550;7.208;2023-03-14T01:36:32;98352.40;;;9.10
70831;BMP180;58451;51.550;7.208;2023-03-14T01:38:05;98347.40;;;9.10
70831;BMP180;58451;51.550;7.208;2023-03-14T01:39:38;98347.40;;;9.10
70831;BMP180;58451;51.550;7.208;2023-03-14T01:41:22;98348.80;;;9.10
70831;BMP180;58451;51.550;7.208;2023-03-14T01:43:13;98346.00;;;9.06
70831;BMP180;58451;51.550;7.208;2023-03-14T01:44:58;98335.40;;;9.00
70831;BMP180;58451;51.550;7.208;2023-03-14T01:46:41;98336.00;;;9.00
70831;BMP180;58451;51.550;7.208;2023-03-14T01:48:13;98329.40;;;9.00
70831;BMP180;58451;51.550;7.208;2023-03-14T01:51:36;98332.00;;;9.00
70831;BMP180;58451;51.550;7.208;2023-03-14T01:53:15;98335.40;;;9.00
70831;BMP180;58451;51.550;7.208;2023-03-14T01:54:55;98331.60;;;9.00
70831;BMP180;58451;51.550;7.208;2023-03-14T01:56:32;98321.20;;;9.00
70831;BMP180;58451;51.550;7.208;2023-03-14T01:58:05;98318.20;;;9.00
70831;BMP180;58451;51.550;7.208;2023-03-14T01:59:40;98324.60;;;9.00
70831;BMP180;58451;51.550;7.208;2023-03-14T02:01:16;98328.80;;;9.00
70831;BMP180;58451;51.550;7.208;2023-03-14T02:02:55;98323.20;;;8.98
70831;BMP180;58451;51.550;7.208;2023-03-14T02:04:32;98325.40;;;8.94
70831;BMP180;58451;51.550;7.208;2023-03-14T02:06:08;98322.00;;;8.92
70831;BMP180;58451;51.550;7.208;2023-03-14T02:07:53;98324.80;;;8.90
70831;BMP180;58451;51.550;7.208;2023-03-14T02:09:30;98322.80;;;8.90
70831;BMP180;58451;51.550;7.208;2023-03-14T02:11:04;98320.00;;;8.90
70831;BMP180;58451;51.550;7.208;2023-03-14T02:12:56;98312.20;;;8.90
70831;BMP180;58451;51.550;7.208;2023-03-14T02:14:47;98311.20;;;8.90
70831;BMP180;58451;51.550;7.208;2023-03-14T02:16:35;98319.00;;;8.90
70831;BMP180;58451;51.550;7.208;2023-03-14T02:18:28;98316.20;;;8.90
70831;BMP180;58451;51.550;7.208;2023-03-14T02:22:10;98316.40;;;8.90
70831;BMP180;58451;51.550;7.208;2023-03-14T02:24:35;98314.80;;;8.90
70831;BMP180;58451;51.550;7.208;2023-03-14T02:26:24;98319.60;;;8.90
70831;BMP180;58451;51.550;7.208;2023-03-14T02:27:58;98310.20;;;8.90
70831;BMP180;58451;51.550;7.208;2023-03-14T02:29:36;98307.40;;;8.92
70831;BMP180;58451;51.550;7.208;2023-03-14T02:31:11;98308.00;;;8.94
70831;BMP180;58451;51.550;7.208;2023-03-14T02:32:51;98309.00;;;9.00
70831;BMP180;58451;51.550;7.208;2023-03-14T02:34:26;98314.80;;;9.00
70831;BMP180;58451;51.550;7.208;2023-03-14T02:36:05;98311.40;;;9.00
70831;BMP180;58451;51.550;7.208;2023-03-14T02:39:59;98307.60;;;9.04
70831;BMP180;58451;51.550;7.208;2023-03-14T02:41:31;98313.20;;;9.10
70831;BMP180;58451;51.550;7.208;2023-03-14T02:43:06;98314.00;;;9.10
70831;BMP180;58451;51.550;7.208;2023-03-14T02:46:51;98303.40;;;9.10
70831;BMP180;58451;51.550;7.208;2023-03-14T02:48:33;98312.60;;;9.10
70831;BMP180;58451;51.550;7.208;2023-03-14T02:50:16;98314.40;;;9.10
70831;BMP180;58451;51.550;7.208;2023-03-14T02:51:49;98314.20;;;9.10
70831;BMP180;58451;51.550;7.208;2023-03-14T02:53:31;98319.80;;;9.10
70831;BMP180;58451;51.550;7.208;2023-03-14T02:55:08;98321.40;;;9.10
70831;BMP180;58451;51.550;7.208;2023-03-14T02:56:40;98320.20;;;9.10
70831;BMP180;58451;51.550;7.208;2023-03-14T02:58:18;98322.60;;;9.12
70831;BMP180;58451;51.550;7.208;2023-03-14T02:59:50;98318.40;;;9.18
70831;BMP180;58451;51.550;7.208;2023-03-14T03:01:24;98309.40;;;9.16
70831;BMP180;58451;51.550;7.208;2023-03-14T03:02:56;98309.80;;;9.20
70831;BMP180;58451;51.550;7.208;2023-03-14T03:04:28;98306.40;;;9.20
70831;BMP180;58451;51.550;7.208;2023-03-14T03:06:01;98296.00;;;9.20
70831;BMP180;58451;51.550;7.208;2023-03-14T03:07:33;98302.00;;;9.20
70831;BMP180;58451;51.550;7.208;2023-03-14T03:09:05;98296.60;;;9.20
70831;BMP180;58451;51.550;7.208;2023-03-14T03:10:37;98286.60;;;9.20
70831;BMP180;58451;51.550;7.208;2023-03-14T03:12:11;98288.60;;;9.20
70831;BMP180;58451;51.550;7.208;2023-03-14T03:13:44;98299.40;;;9.20
70831;BMP180;58451;51.550;7.208;2023-03-14T03:15:17;98287.60;;;9.20
70831;BMP180;58451;51.550;7.208;2023-03-14T03:16:49;98286.40;;;9.20
70831;BMP180;58451;51.550;7.208;2023-03-14T03:18:21;98289.00;;;9.20
70831;BMP180;58451;51.550;7.208;2023-03-14T03:19:53;98281.80;;;9.12
70831;BMP180;58451;51.550;7.208;2023-03-14T03:21:24;98275.60;;;9.10
70831;BMP180;58451;51.550;7.208;2023-03-14T03:22:58;98278.40;;;9.10
70831;BMP180;58451;51.550;7.208;2023-03-14T03:24:30;98276.00;;;9.10
70831;BMP180;58451;51.550;7.208;2023-03-14T03:26:02;98266.80;;;9.08
70831;BMP180;58451;51.550;7.208;2023-03-14T03:27:36;98263.80;;;9.00
70831;BMP180;58451;51.550;7.208;2023-03-14T03:29:09;98268.60;;;9.00
70831;BMP180;58451;51.550;7.208;2023-03-14T03:30:41;98268.60;;;9.00
70831;BMP180;58451;51.550;7.208;2023-03-14T03:32:14;98263.00;;;9.00
70831;BMP180;58451;51.550;7.208;2023-03-14T03:33:45;98264.20;;;9.00
70831;BMP180;58451;51.550;7.208;2023-03-14T03:35:18;98266.00;;;9.00
70831;BMP180;58451;51.550;7.208;2023-03-14T03:36:50;98267.60;;;9.00
70831;BMP180;58451;51.550;7.208;2023-03-14T03:38:22;98266.40;;;9.00
70831;BMP180;58451;51.550;7.208;2023-03-14T03:39:55;98271.80;;;8.96
70831;BMP180;58451;51.550;7.208;2023-03-14T03:41:28;98268.20;;;8.96
70831;BMP180;58451;51.550;7.208;2023-03-14T03:43:00;98266.00;;;9.00
70831;BMP180;58451;51.550;7.208;2023-03-14T03:44:32;98269.00;;;9.00
70831;BMP180;58451;51.550;7.208;2023-03-14T03:46:06;98269.00;;;9.00
70831;BMP180;58451;51.550;7.208;2023-03-14T03:47:38;98271.00;;;9.00
70831;BMP180;58451;51.550;7.208;2023-03-14T03:49:11;98267.80;;;9.00
70831;BMP180;58451;51.550;7.208;2023-03-14T03:50:47;98263.00;;;9.00
70831;BMP180;58451;51.550;7.208;2023-03-14T03:52:21;98266.60;;;9.00
70831;BMP180;58451;51.550;7.208;2023-03-14T03:53:56;98266.60;;;9.00
70831;BMP180;58451;51.550;7.208;2023-03-14T03:55:34;98263.40;;;9.00
70831;BMP180;58451;51.550;7.208;2023-03-14T03:57:06;98263.60;;;9.00
70831;BMP180;58451;51.550;7.208;2023-03-14T03:58:38;98260.60;;;9.02
70831;BMP180;58451;51.550;7.208;2023-03-14T04:00:12;98265.40;;;9.08
70831;BMP180;58451;51.550;7.208;2023-03-14T04:01:47;98267.20;;;9.10
70831;BMP180;58451;51.550;7.208;2023-03-14T04:03:19;98259.40;;;9.10
70831;BMP180;58451;51.550;7.208;2023-03-14T04:04:51;98254.40;;;9.10
70831;BMP180;58451;51.550;7.208;2023-03-14T04:06:23;98255.00;;;9.10
70831;BMP180;58451;51.550;7.208;2023-03-14T04:08:01;98257.20;;;9.10
70831;BMP180;58451;51.550;7.208;2023-03-14T04:09:33;98257.80;;;9.10
70831;BMP180;58451;51.550;7.208;2023-03-14T04:11:26;98264.80;;;9.10
70831;BMP180;58451;51.550;7.208;2023-03-14T04:13:04;98265.80;;;9.10
70831;BMP180;58451;51.550;7.208;2023-03-14T04:14:38;98266.60;;;9.10
70831;BMP180;58451;51.550;7.208;2023-03-14T04:16:23;98266.40;;;9.10
70831;BMP180;58451;51.550;7.208;2023-03-14T04:17:59;98269.20;;;9.10
70831;BMP180;58451;51.550;7.208;2023-03-14T04:19:31;98267.20;;;9.04
70831;BMP180;58451;51.550;7.208;2023-03-14T04:21:03;98269.00;;;9.00
70831;BMP180;58451;51.550;7.208;2023-03-14T04:22:44;98263.40;;;9.00
70831;BMP180;58451;51.550;7.208;2023-03-14T04:24:18;98260.40;;;9.00
70831;BMP180;58451;51.550;7.208;2023-03-14T04:25:53;98257.40;;;9.00
70831;BMP180;58451;51.550;7.208;2023-03-14T04:27:26;98264.60;;;9.00
70831;BMP180;58451;51.550;7.208;2023-03-14T04:28:58;98261.80;;;9.00
70831;BMP180;58451;51.550;7.208;2023-03-14T04:30:31;98258.40;;;9.00
70831;BMP180;58451;51.550;7.208;2023-03-14T04:32:06;98264.00;;;9.00
70831;BMP180;58451;51.550;7.208;2023-03-14T04:33:40;98262.00;;;9.00
70831;BMP180;58451;51.550;7.208;2023-03-14T04:35:21;98261.20;;;9.00
70831;BMP180;58451;51.550;7.208;2023-03-14T04:36:54;98256.60;;;9.00
70831;BMP180;58451;51.550;7.208;2023-03-14T04:38:33;98255.80;;;9.00
70831;BMP180;58451;51.550;7.208;2023-03-14T04:40:06;98265.40;;;9.00
70831;BMP180;58451;51.550;7.208;2023-03-14T04:41:38;98252.40;;;9.00
70831;BMP180;58451;51.550;7.208;2023-03-14T04:43:11;98257.60;;;9.00
70831;BMP180;58451;51.550;7.208;2023-03-14T04:44:50;98257.00;;;9.00
70831;BMP180;58451;51.550;7.208;2023-03-14T04:46:25;98258.60;;;8.90
70831;BMP180;58451;51.550;7.208;2023-03-14T04:47:57;98255.00;;;8.90
70831;BMP180;58451;51.550;7.208;2023-03-14T04:49:30;98248.80;;;8.90
70831;BMP180;58451;51.550;7.208;2023-03-14T04:51:04;98247.80;;;8.80
70831;BMP180;58451;51.550;7.208;2023-03-14T04:52:38;98242.00;;;8.78
70831;BMP180;58451;51.550;7.208;2023-03-14T04:54:10;98234.20;;;8.70
70831;BMP180;58451;51.550;7.208;2023-03-14T04:55:47;98236.20;;;8.66
70831;BMP180;58451;51.550;7.208;2023-03-14T04:57:19;98239.60;;;8.60
70831;BMP180;58451;51.550;7.208;2023-03-14T04:58:51;98234.00;;;8.58
70831;BMP180;58451;51.550;7.208;2023-03-14T05:00:23;98235.60;;;8.50
70831;BMP180;58451;51.550;7.208;2023-03-14T05:02:09;98241.60;;;8.50
70831;BMP180;58451;51.550;7.208;2023-03-14T05:04:10;98229.20;;;8.40
70831;BMP180;58451;51.550;7.208;2023-03-14T05:06:00;98228.40;;;8.40
70831;BMP180;58451;51.550;7.208;2023-03-14T05:07:56;98235.20;;;8.30
70831;BMP180;58451;51.550;7.208;2023-03-14T05:09:49;98234.80;;;8.24
70831;BMP180;58451;51.550;7.208;2023-03-14T05:11:45;98229.00;;;8.20
70831;BMP180;58451;51.550;7.208;2023-03-14T05:13:35;98232.60;;;8.20
70831;BMP180;58451;51.550;7.208;2023-03-14T05:15:22;98225.00;;;8.20
70831;BMP180;58451;51.550;7.208;2023-03-14T05:17:14;98227.40;;;8.10
70831;BMP180;58451;51.550;7.208;2023-03-14T05:19:07;98228.00;;;8.10
70831;BMP180;58451;51.550;7.208;2023-03-14T05:20:52;98230.80;;;8.04
70831;BMP180;58451;51.550;7.208;2023-03-14T05:22:43;98215.80;;;8.00
70831;BMP180;58451;51.550;7.208;2023-03-14T05:24:47;98216.20;;;8.00
70831;BMP180;58451;51.550;7.208;2023-03-14T05:26:39;98212.40;;;8.00
70831;BMP180;58451;51.550;7.208;2023-03-14T05:28:30;98212.20;;;8.00
70831;BMP180;58451;51.550;7.208;2023-03-14T05:30:37;98208.40;;;8.00
70831;BMP180;58451;51.550;7.208;2023-03-14T05:32:09;98202.20;;;7.94
70831;BMP180;58451;51.550;7.208;2023-03-14T05:34:01;98205.20;;;7.94
70831;BMP180;58451;51.550;7.208;2023-03-14T05:35:42;98198.00;;;7.90
70831;BMP180;58451;51.550;7.208;2023-03-14T05:37:33;98201.40;;;7.90
70831;BMP180;58451;51.550;7.208;2023-03-14T05:39:25;98202.80;;;7.90
70831;BMP180;58451;51.550;7.208;2023-03-14T05:41:33;98195.00;;;7.90
70831;BMP180;58451;51.550;7.208;2023-03-14T05:43:20;98198.40;;;7.90
70831;BMP180;58451;51.550;7.208;2023-03-14T05:45:21;98198.40;;;7.90
70831;BMP180;58451;51.550;7.208;2023-03-14T05:47:28;98193.40;;;7.90
70831;BMP180;58451;51.550;7.208;2023-03-14T05:49:29;98196.20;;;7.84
70831;BMP180;58451;51.550;7.208;2023-03-14T05:51:02;98189.60;;;7.80
70831;BMP180;58451;51.550;7.208;2023-03-14T05:52:58;98187.20;;;7.80
70831;BMP180;58451;51.550;7.208;2023-03-14T05:54:49;98190.80;;;7.80
70831;BMP180;58451;51.550;7.208;2023-03-14T05:56:41;98184.80;;;7.80
70831;BMP180;58451;51.550;7.208;2023-03-14T05:58:19;98177.60;;;7.80
70831;BMP180;58451;51.550;7.208;2023-03-14T06:00:11;98182.80;;;7.80
70831;BMP180;58451;51.550;7.208;2023-03-14T06:02:15;98181.60;;;7.80
70831;BMP180;58451;51.550;7.208;2023-03-14T06:03:53;98183.60;;;7.80
70831;BMP180;58451;51.550;7.208;2023-03-14T06:05:25;98187.00;;;7.80
70831;BMP180;58451;51.550;7.208;2023-03-14T06:07:01;98184.60;;;7.80
70831;BMP180;58451;51.550;7.208;2023-03-14T06:08:33;98190.20;;;7.80
70831;BMP180;58451;51.550;7.208;2023-03-14T06:10:07;98184.00;;;7.80
70831;BMP180;58451;51.550;7.208;2023-03-14T06:11:40;98186.40;;;7.80
70831;BMP180;58451;51.550;7.208;2023-03-14T06:13:15;98184.40;;;7.80
70831;BMP180;58451;51.550;7.208;2023-03-14T06:14:49;98179.60;;;7.86
70831;BMP180;58451;51.550;7.208;2023-03-14T06:16:22;98180.20;;;7.90
70831;BMP180;58451;51.550;7.208;2023-03-14T06:17:56;98179.60;;;7.90
70831;BMP180;58451;51.550;7.208;2023-03-14T06:19:28;98181.60;;;7.90
70831;BMP180;58451;51.550;7.208;2023-03-14T06:21:00;98183.20;;;7.96
70831;BMP180;58451;51.550;7.208;2023-03-14T06:22:32;98186.80;;;8.00
70831;BMP180;58451;51.550;7.208;2023-03-14T06:24:05;98189.80;;;8.00
70831;BMP180;58451;51.550;7.208;2023-03-14T06:25:42;98190.20;;;8.00
70831;BMP180;58451;51.550;7.208;2023-03-14T06:27:14;98188.80;;;8.00
70831;BMP180;58451;51.550;7.208;2023-03-14T06:28:46;98186.40;;;8.04
70831;BMP180;58451;51.550;7.208;2023-03-14T06:30:18;98189.80;;;8.10
70831;BMP180;58451;51.550;7.208;2023-03-14T06:31:51;98190.00;;;8.10
70831;BMP180;58451;51.550;7.208;2023-03-14T06:33:24;98191.00;;;8.10
70831;BMP180;58451;51.550;7.208;2023-03-14T06:34:56;98187.60;;;8.14
70831;BMP180;58451;51.550;7.208;2023-03-14T06:36:32;98192.20;;;8.20
70831;BMP180;58451;51.550;7.208;2023-03-14T06:38:04;98193.20;;;8.20
70831;BMP180;58451;51.550;7.208;2023-03-14T06:39:36;98190.60;;;8.20
70831;BMP180;58451;51.550;7.208;2023-03-14T06:41:15;98191.20;;;8.30
70831;BMP180;58451;51.550;7.208;2023-03-14T06:42:49;98189.80;;;8.30
70831;BMP180;58451;51.550;7.208;2023-03-14T06:44:23;98189.80;;;8.40
70831;BMP180;58451;51.550;7.208;2023-03-14T06:45:55;98189.20;;;8.40
70831;BMP180;58451;51.550;7.208;2023-03-14T06:47:27;98182.20;;;8.40
70831;BMP180;58451;51.550;7.208;2023-03-14T06:48:59;98185.40;;;8.40
70831;BMP180;58451;51.550;7.208;2023-03-14T06:50:31;98189.00;;;8.50
70831;BMP180;58451;51.550;7.208;2023-03-14T06:52:03;98190.80;;;8.56
70831;BMP180;58451;51.550;7.208;2023-03-14T06:53:36;98194.00;;;8.60
70831;BMP180;58451;51.550;7.208;2023-03-14T06:55:10;98195.20;;;8.62
70831;BMP180;58451;51.550;7.208;2023-03-14T06:56:42;98191.80;;;8.70
70831;BMP180;58451;51.550;7.208;2023-03-14T06:58:14;98188.40;;;8.70
70831;BMP180;58451;51.550;7.208;2023-03-14T06:59:49;98190.40;;;8.80
70831;BMP180;58451;51.550;7.208;2023-03-14T07:01:27;98193.40;;;8.80
70831;BMP180;58451;51.550;7.208;2023-03-14T07:03:07;98197.20;;;8.80
70831;BMP180;58451;51.550;7.208;2023-03-14T07:04:43;98198.00;;;8.90
70831;BMP180;58451;51.550;7.208;2023-03-14T07:06:15;98191.80;;;8.90
70831;BMP180;58451;51.550;7.208;2023-03-14T07:07:46;98195.00;;;8.90
70831;BMP180;58451;51.550;7.208;2023-03-14T07:09:19;98189.80;;;9.00
70831;BMP180;58451;51.550;7.208;2023-03-14T07:10:56;98189.40;;;9.00
70831;BMP180;58451;51.550;7.208;2023-03-14T07:12:29;98190.60;;;9.10
70831;BMP180;58451;51.550;7.208;2023-03-14T07:14:00;98194.40;;;9.20
70831;BMP180;58451;51.550;7.208;2023-03-14T07:15:32;98199.60;;;9.22
70831;BMP180;58451;51.550;7.208;2023-03-14T07:17:08;98197.00;;;9.30
70831;BMP180;58451;51.550;7.208;2023-03-14T07:18:39;98192.80;;;9.36
70831;BMP180;58451;51.550;7.208;2023-03-14T07:20:11;98201.60;;;9.30
70831;BMP180;58451;51.550;7.208;2023-03-14T07:21:44;98198.60;;;9.30
70831;BMP180;58451;51.550;7.208;2023-03-14T07:23:16;98201.00;;;9.30
70831;BMP180;58451;51.550;7.208;2023-03-14T07:24:51;98197.00;;;9.30
70831;BMP180;58451;51.550;7.208;2023-03-14T07:26:24;98195.00;;;9.40
70831;BMP180;58451;51.550;7.208;2023-03-14T07:27:56;98199.80;;;9.42
70831;BMP180;58451;51.550;7.208;2023-03-14T07:29:28;98197.00;;;9.50
70831;BMP180;58451;51.550;7.208;2023-03-14T07:31:00;98196.60;;;9.58
70831;BMP180;58451;51.550;7.208;2023-03-14T07:32:35;98195.20;;;9.60
70831;BMP180;58451;51.550;7.208;2023-03-14T07:34:07;98194.60;;;9.60
70831;BMP180;58451;51.550;7.208;2023-03-14T07:35:42;98193.00;;;9.60
70831;BMP180;58451;51.550;7.208;2023-03-14T07:37:14;98197.80;;;9.60
70831;BMP180;58451;51.550;7.208;2023-03-14T07:38:46;98194.40;;;9.60
70831;BMP180;58451;51.550;7.208;2023-03-14T07:40:42;98196.20;;;9.70
70831;BMP180;58451;51.550;7.208;2023-03-14T07:42:14;98200.80;;;9.80
70831;BMP180;58451;51.550;7.208;2023-03-14T07:44:12;98206.00;;;9.80
70831;BMP180;58451;51.550;7.208;2023-03-14T07:45:47;98206.80;;;9.84
70831;BMP180;58451;51.550;7.208;2023-03-14T07:47:22;98200.80;;;9.90
70831;BMP180;58451;51.550;7.208;2023-03-14T07:48:53;98208.80;;;9.80
70831;BMP180;58451;51.550;7.208;2023-03-14T07:50:25;98211.60;;;9.80
70831;BMP180;58451;51.550;7.208;2023-03-14T07:51:57;98211.60;;;9.84
70831;BMP180;58451;51.550;7.208;2023-03-14T07:53:32;98210.60;;;9.90
70831;BMP180;58451;51.550;7.208;2023-03-14T07:55:04;98210.00;;;9.90
70831;BMP180;58451;51.550;7.208;2023-03-14T07:56:37;98205.40;;;9.90
70831;BMP180;58451;51.550;7.208;2023-03-14T07:58:09;98212.80;;;9.90
70831;BMP180;58451;51.550;7.208;2023-03-14T07:59:41;98215.80;;;9.90
70831;BMP180;58451;51.550;7.208;2023-03-14T08:01:13;98215.60;;;9.96
70831;BMP180;58451;51.550;7.208;2023-03-14T08:02:45;98209.80;;;10.00
70831;BMP180;58451;51.550;7.208;2023-03-14T08:04:18;98208.80;;;10.00
70831;BMP180;58451;51.550;7.208;2023-03-14T08:05:50;98216.80;;;10.00
70831;BMP180;58451;51.550;7.208;2023-03-14T08:07:22;98215.40;;;10.00
70831;BMP180;58451;51.550;7.208;2023-03-14T08:08:54;98217.20;;;10.00
70831;BMP180;58451;51.550;7.208;2023-03-14T08:10:26;98216.80;;;10.00
70831;BMP180;58451;51.550;7.208;2023-03-14T08:12:00;98215.00;;;10.00
70831;BMP180;58451;51.550;7.208;2023-03-14T08:13:32;98216.00;;;10.00
70831;BMP180;58451;51.550;7.208;2023-03-14T08:15:05;98215.20;;;10.00
70831;BMP180;58451;51.550;7.208;2023-03-14T08:16:37;98216.60;;;10.04
70831;BMP180;58451;51.550;7.208;2023-03-14T08:18:09;98213.00;;;10.00
70831;BMP180;58451;51.550;7.208;2023-03-14T08:19:42;98213.80;;;10.00
70831;BMP180;58451;51.550;7.208;2023-03-14T08:21:14;98217.40;;;10.00
70831;BMP180;58451;51.550;7.208;2023-03-14T08:22:47;98218.00;;;10.10
70831;BMP180;58451;51.550;7.208;2023-03-14T08:24:19;98213.60;;;10.20
70831;BMP180;58451;51.550;7.208;2023-03-14T08:25:51;98223.00;;;10.22
70831;BMP180;58451;51.550;7.208;2023-03-14T08:27:23;98218.40;;;10.30
70831;BMP180;58451;51.550;7.208;2023-03-14T08:28:55;98217.00;;;10.30
70831;BMP180;58451;51.550;7.208;2023-03-14T08:30:29;98215.80;;;10.20
70831;BMP180;58451;51.550;7.208;2023-03-14T08:32:01;98220.00;;;10.16
70831;BMP180;58451;51.550;7.208;2023-03-14T08:33:34;98223.20;;;10.16
70831;BMP180;58451;51.550;7.208;2023-03-14T08:35:06;98221.80;;;10.20
70831;BMP180;58451;51.550;7.208;2023-03-14T08:36:39;98224.60;;;10.16
70831;BMP180;58451;51.550;7.208;2023-03-14T08:38:11;98228.40;;;10.20
70831;BMP180;58451;51.550;7.208;2023-03-14T08:39:42;98228.80;;;10.20
70831;BMP180;58451;51.550;7.208;2023-03-14T08:41:14;98227.20;;;10.20
70831;BMP180;58451;51.550;7.208;2023-03-14T08:42:47;98224.20;;;10.32
70831;BMP180;58451;51.550;7.208;2023-03-14T08:44:22;98226.20;;;10.40
70831;BMP180;58451;51.550;7.208;2023-03-14T08:46:01;98227.00;;;10.56
70831;BMP180;58451;51.550;7.208;2023-03-14T08:47:34;98224.40;;;10.74
70831;BMP180;58451;51.550;7.208;2023-03-14T08:49:07;98230.00;;;10.80
70831;BMP180;58451;51.550;7.208;2023-03-14T08:50:39;98233.40;;;10.90
70831;BMP180;58451;51.550;7.208;2023-03-14T08:52:11;98224.80;;;10.90
70831;BMP180;58451;51.550;7.208;2023-03-14T08:53:43;98228.00;;;11.08
70831;BMP180;58451;51.550;7.208;2023-03-14T08:55:15;98228.00;;;11.12
70831;BMP180;58451;51.550;7.208;2023-03-14T08:56:47;98229.00;;;11.20
70831;BMP180;58451;51.550;7.208;2023-03-14T08:58:21;98223.00;;;11.36
70831;BMP180;58451;51.550;7.208;2023-03-14T08:59:56;98225.60;;;11.50
70831;BMP180;58451;51.550;7.208;2023-03-14T09:01:29;98226.80;;;11.60
70831;BMP180;58451;51.550;7.208;2023-03-14T09:03:01;98227.80;;;11.60
70831;BMP180;58451;51.550;7.208;2023-03-14T09:04:33;98231.80;;;11.60
70831;BMP180;58451;51.550;7.208;2023-03-14T09:06:09;98231.60;;;11.70
70831;BMP180;58451;51.550;7.208;2023-03-14T09:07:43;98238.20;;;11.70
70831;BMP180;58451;51.550;7.208;2023-03-14T09:09:15;98234.00;;;11.70
70831;BMP180;58451;51.550;7.208;2023-03-14T09:10:47;98236.20;;;11.70
70831;BMP180;58451;51.550;7.208;2023-03-14T09:12:19;98234.60;;;11.60
70831;BMP180;58451;51.550;7.208;2023-03-14T09:13:50;98236.60;;;11.50
70831;BMP180;58451;51.550;7.208;2023-03-14T09:15:22;98247.60;;;11.48
70831;BMP180;58451;51.550;7.208;2023-03-14T09:16:54;98232.80;;;11.40
70831;BMP180;58451;51.550;7.208;2023-03-14T09:18:26;98247.80;;;11.32
70831;BMP180;58451;51.550;7.208;2023-03-14T09:19:58;98246.60;;;11.30
70831;BMP180;58451;51.550;7.208;2023-03-14T09:21:31;98250.40;;;11.20
70831;BMP180;58451;51.550;7.208;2023-03-14T09:23:04;98266.40;;;11.10
70831;BMP180;58451;51.550;7.208;2023-03-14T09:24:36;98265.80;;;10.98
70831;BMP180;58451;51.550;7.208;2023-03-14T09:26:08;98270.00;;;10.80
70831;BMP180;58451;51.550;7.208;2023-03-14T09:27:40;98276.80;;;10.70